QTR69G OTHH-HKJK
Flight info
| Callsign | QTR69G |
|---|---|
| Flight time | 4h 42m |
| Altitude | 28000 |
| Route | DATRI L564 BAT/N0491F390 DCT KUTNA DCT MIGMA DCT GOBRO L425 ITUVO/N0488F400 B400 RIGAM B403 BOMIX UB403 MAV UP312 WAV WAJI1A |
| Aircraft | A359/H-SDE2E3GHIJ3J4J5LM1ORWXY/LB1D1 |
Departure
| Time | 2026-05-06 13:47 |
|---|---|
| Airport | Hamad International Airport (OTHH) |
Arrival
| Time | 2026-05-06 18:29 |
|---|---|
| Airport | Jomo Kenyatta International Airport (HKJK) |
| Time | Latitude | Longitude | Altitude | Speed | Heading |
|---|---|---|---|---|---|
| 2026-05-06 13:21 | 25.26525 | 51.61082 | 29 ft | 0 kts | 68° |
| 2026-05-06 13:35 | 25.26521 | 51.61070 | 28 ft | 3 kts | 68° |
| 2026-05-06 13:35 | 25.26513 | 51.61049 | 27 ft | 3 kts | 68° |
| 2026-05-06 13:35 | 25.26506 | 51.61028 | 26 ft | 3 kts | 68° |
| 2026-05-06 13:35 | 25.26500 | 51.61012 | 26 ft | 2 kts | 69° |
| 2026-05-06 13:36 | 25.26496 | 51.60994 | 26 ft | 3 kts | 105° |
| 2026-05-06 13:36 | 25.26504 | 51.60980 | 25 ft | 3 kts | 157° |
| 2026-05-06 13:36 | 25.26521 | 51.60973 | 26 ft | 2 kts | 159° |
| 2026-05-06 13:36 | 25.26525 | 51.60971 | 25 ft | 0 kts | 158° |
| 2026-05-06 13:39 | 25.26524 | 51.60972 | 28 ft | 0 kts | 158° |
| 2026-05-06 13:39 | 25.26523 | 51.60972 | 28 ft | 0 kts | 158° |
| 2026-05-06 13:39 | 25.26512 | 51.60977 | 28 ft | 4 kts | 158° |
| 2026-05-06 13:39 | 25.26467 | 51.60997 | 28 ft | 10 kts | 158° |
| 2026-05-06 13:40 | 25.26380 | 51.61036 | 28 ft | 16 kts | 158° |
| 2026-05-06 13:40 | 25.26267 | 51.61084 | 28 ft | 6 kts | 163° |
| 2026-05-06 13:40 | 25.26266 | 51.61084 | 28 ft | 0 kts | 163° |
| 2026-05-06 13:41 | 25.26260 | 51.61086 | 28 ft | 2 kts | 169° |
| 2026-05-06 13:41 | 25.26243 | 51.61075 | 28 ft | 6 kts | 208° |
| 2026-05-06 13:41 | 25.26212 | 51.61023 | 28 ft | 11 kts | 245° |
| 2026-05-06 13:41 | 25.26176 | 51.60938 | 28 ft | 13 kts | 244° |
| 2026-05-06 13:42 | 25.26146 | 51.60850 | 28 ft | 13 kts | 249° |
| 2026-05-06 13:42 | 25.26111 | 51.60749 | 28 ft | 15 kts | 249° |
| 2026-05-06 13:42 | 25.26071 | 51.60635 | 28 ft | 17 kts | 248° |
| 2026-05-06 13:42 | 25.25988 | 51.60559 | 27 ft | 17 kts | 171° |
| 2026-05-06 13:43 | 25.25876 | 51.60605 | 27 ft | 18 kts | 159° |
| 2026-05-06 13:43 | 25.25760 | 51.60658 | 27 ft | 19 kts | 156° |
| 2026-05-06 13:43 | 25.25648 | 51.60703 | 27 ft | 16 kts | 171° |
| 2026-05-06 13:43 | 25.25579 | 51.60628 | 27 ft | 16 kts | 245° |
| 2026-05-06 13:44 | 25.25609 | 51.60523 | 24 ft | 16 kts | 331° |
| 2026-05-06 13:44 | 25.25626 | 51.60514 | 22 ft | 0 kts | 336° |
| 2026-05-06 13:46 | 25.25641 | 51.60507 | 26 ft | 12 kts | 338° |
| 2026-05-06 13:46 | 25.25942 | 51.60375 | 30 ft | 80 kts | 338° |
| 2026-05-06 13:46 | 25.26657 | 51.60058 | 23 ft | 139 kts | 338° |
| 2026-05-06 13:46 | 25.27703 | 51.59587 | 173 ft | 175 kts | 340° |
| 2026-05-06 13:47 | 25.28775 | 51.59104 | 997 ft | 163 kts | 341° |
| 2026-05-06 13:47 | 25.29850 | 51.58603 | 1532 ft | 175 kts | 339° |
| 2026-05-06 13:47 | 25.30969 | 51.58050 | 2029 ft | 173 kts | 338° |
| 2026-05-06 13:47 | 25.32049 | 51.57512 | 2508 ft | 169 kts | 340° |
| 2026-05-06 13:48 | 25.33163 | 51.57015 | 2747 ft | 177 kts | 343° |
| 2026-05-06 13:48 | 25.34350 | 51.56547 | 3017 ft | 184 kts | 343° |
| 2026-05-06 13:48 | 25.35594 | 51.56044 | 3240 ft | 197 kts | 342° |
| 2026-05-06 13:48 | 25.36930 | 51.55481 | 3407 ft | 214 kts | 342° |
| 2026-05-06 13:49 | 25.38383 | 51.54856 | 3592 ft | 233 kts | 341° |
| 2026-05-06 13:49 | 25.39943 | 51.54174 | 3838 ft | 250 kts | 340° |
| 2026-05-06 13:49 | 25.41602 | 51.53443 | 4141 ft | 263 kts | 341° |
| 2026-05-06 13:49 | 25.43327 | 51.52682 | 4589 ft | 270 kts | 340° |
| 2026-05-06 13:50 | 25.45083 | 51.51902 | 5100 ft | 273 kts | 340° |
| 2026-05-06 13:50 | 25.46818 | 51.51010 | 5579 ft | 279 kts | 329° |
| 2026-05-06 13:50 | 25.48105 | 51.49441 | 6041 ft | 285 kts | 297° |
| 2026-05-06 13:50 | 25.48500 | 51.47297 | 6560 ft | 288 kts | 271° |
| 2026-05-06 13:51 | 25.48406 | 51.45071 | 7020 ft | 291 kts | 267° |
| 2026-05-06 13:51 | 25.48264 | 51.42837 | 7565 ft | 291 kts | 268° |
| 2026-05-06 13:51 | 25.48134 | 51.40597 | 8069 ft | 292 kts | 268° |
| 2026-05-06 13:51 | 25.48018 | 51.38352 | 8626 ft | 292 kts | 269° |
| 2026-05-06 13:52 | 25.47910 | 51.36109 | 9188 ft | 292 kts | 269° |
| 2026-05-06 13:52 | 25.47806 | 51.33868 | 9752 ft | 292 kts | 268° |
| 2026-05-06 13:52 | 25.47704 | 51.31617 | 10271 ft | 294 kts | 268° |
| 2026-05-06 13:52 | 25.47540 | 51.29346 | 10913 ft | 298 kts | 262° |
| 2026-05-06 13:53 | 25.46771 | 51.27217 | 11607 ft | 303 kts | 235° |
| 2026-05-06 13:53 | 25.45162 | 51.25692 | 12157 ft | 316 kts | 208° |
| 2026-05-06 13:53 | 25.42972 | 51.25106 | 12448 ft | 335 kts | 182° |
| 2026-05-06 13:53 | 25.40587 | 51.25144 | 12780 ft | 351 kts | 178° |
| 2026-05-06 13:54 | 25.38092 | 51.25249 | 13064 ft | 366 kts | 178° |
| 2026-05-06 13:54 | 25.35498 | 51.25334 | 13380 ft | 379 kts | 179° |
| 2026-05-06 13:54 | 25.32816 | 51.25395 | 13676 ft | 391 kts | 179° |
| 2026-05-06 13:54 | 25.30084 | 51.25444 | 14169 ft | 393 kts | 179° |
| 2026-05-06 13:55 | 25.27344 | 51.25642 | 14670 ft | 397 kts | 171° |
| 2026-05-06 13:55 | 25.24673 | 51.26452 | 15156 ft | 401 kts | 160° |
| 2026-05-06 13:55 | 25.22052 | 51.27545 | 15677 ft | 403 kts | 159° |
| 2026-05-06 13:55 | 25.19431 | 51.28670 | 16224 ft | 405 kts | 159° |
| 2026-05-06 13:56 | 25.16794 | 51.29796 | 16780 ft | 407 kts | 159° |
| 2026-05-06 13:56 | 25.14141 | 51.30922 | 17304 ft | 410 kts | 160° |
| 2026-05-06 13:56 | 25.11473 | 51.32051 | 17817 ft | 412 kts | 160° |
| 2026-05-06 13:56 | 25.08785 | 51.33185 | 18280 ft | 416 kts | 159° |
| 2026-05-06 13:57 | 25.06069 | 51.34332 | 18686 ft | 419 kts | 159° |
| 2026-05-06 13:57 | 25.03329 | 51.35488 | 19088 ft | 423 kts | 160° |
| 2026-05-06 13:57 | 25.00569 | 51.36646 | 19525 ft | 427 kts | 160° |
| 2026-05-06 13:57 | 24.97785 | 51.37816 | 19993 ft | 429 kts | 160° |
| 2026-05-06 13:58 | 24.94989 | 51.38992 | 20468 ft | 431 kts | 160° |
| 2026-05-06 13:58 | 24.92264 | 51.40407 | 20904 ft | 436 kts | 150° |
| 2026-05-06 13:58 | 24.89730 | 51.42267 | 21376 ft | 440 kts | 146° |
| 2026-05-06 13:58 | 24.87230 | 51.44230 | 21804 ft | 443 kts | 146° |
| 2026-05-06 13:59 | 24.84710 | 51.46216 | 22213 ft | 447 kts | 146° |
| 2026-05-06 13:59 | 24.82173 | 51.48208 | 22654 ft | 450 kts | 146° |
| 2026-05-06 13:59 | 24.79611 | 51.50213 | 23082 ft | 453 kts | 146° |
| 2026-05-06 13:59 | 24.77011 | 51.52195 | 23462 ft | 456 kts | 149° |
| 2026-05-06 14:00 | 24.74224 | 51.53854 | 23818 ft | 456 kts | 159° |
| 2026-05-06 14:00 | 24.71226 | 51.54962 | 24217 ft | 454 kts | 169° |
| 2026-05-06 14:00 | 24.68108 | 51.55464 | 24621 ft | 452 kts | 180° |
| 2026-05-06 14:00 | 24.64973 | 51.55353 | 25056 ft | 450 kts | 189° |
| 2026-05-06 14:01 | 24.61875 | 51.54824 | 25510 ft | 451 kts | 193° |
| 2026-05-06 14:01 | 24.58796 | 51.54138 | 25943 ft | 452 kts | 195° |
| 2026-05-06 14:01 | 24.55717 | 51.53380 | 26382 ft | 454 kts | 195° |
| 2026-05-06 14:01 | 24.53677 | 51.52864 | 26687 ft | 455 kts | 195° |
| 2026-05-06 14:02 | 24.49574 | 51.51834 | 27277 ft | 458 kts | 195° |
| 2026-05-06 14:02 | 24.47474 | 51.51315 | 27572 ft | 459 kts | 195° |
| 2026-05-06 14:02 | 24.44342 | 51.50555 | 28008 ft | 462 kts | 195° |
| 2026-05-06 14:02 | 24.41200 | 51.49805 | 28419 ft | 464 kts | 195° |
| 2026-05-06 14:03 | 24.37004 | 51.48814 | 28928 ft | 468 kts | 195° |
| 2026-05-06 14:03 | 24.33815 | 51.48065 | 29326 ft | 470 kts | 195° |
| 2026-05-06 14:03 | 24.31650 | 51.47557 | 29591 ft | 471 kts | 195° |
| 2026-05-06 14:03 | 24.28438 | 51.46804 | 29946 ft | 473 kts | 195° |
| 2026-05-06 14:04 | 24.25207 | 51.46047 | 30223 ft | 476 kts | 195° |
| 2026-05-06 14:04 | 24.21924 | 51.45447 | 30480 ft | 482 kts | 189° |
| 2026-05-06 14:04 | 24.18559 | 51.45248 | 30755 ft | 487 kts | 185° |
| 2026-05-06 14:04 | 24.15157 | 51.45192 | 31029 ft | 490 kts | 184° |
| 2026-05-06 14:05 | 24.11743 | 51.45195 | 31260 ft | 493 kts | 184° |
| 2026-05-06 14:05 | 24.08354 | 51.45225 | 31503 ft | 495 kts | 183° |
| 2026-05-06 14:05 | 24.04898 | 51.45266 | 31765 ft | 497 kts | 183° |
| 2026-05-06 14:05 | 24.01449 | 51.45305 | 32124 ft | 496 kts | 184° |
| 2026-05-06 14:06 | 23.98005 | 51.45341 | 32490 ft | 495 kts | 184° |
| 2026-05-06 14:06 | 23.94566 | 51.45371 | 32847 ft | 494 kts | 184° |
| 2026-05-06 14:06 | 23.91132 | 51.45396 | 33181 ft | 493 kts | 184° |
| 2026-05-06 14:06 | 23.87697 | 51.45419 | 33507 ft | 493 kts | 184° |
| 2026-05-06 14:07 | 23.84270 | 51.45441 | 33809 ft | 493 kts | 184° |
| 2026-05-06 14:07 | 23.80839 | 51.45462 | 34116 ft | 492 kts | 184° |
| 2026-05-06 14:07 | 23.77425 | 51.45484 | 34423 ft | 491 kts | 184° |
| 2026-05-06 14:07 | 23.74018 | 51.45506 | 34725 ft | 489 kts | 184° |
| 2026-05-06 14:08 | 23.70611 | 51.45528 | 35024 ft | 489 kts | 184° |
| 2026-05-06 14:08 | 23.67212 | 51.45550 | 35309 ft | 488 kts | 184° |
| 2026-05-06 14:08 | 23.63825 | 51.45572 | 35571 ft | 487 kts | 184° |
| 2026-05-06 14:08 | 23.60442 | 51.45593 | 35856 ft | 486 kts | 184° |
| 2026-05-06 14:09 | 23.57066 | 51.45615 | 36126 ft | 485 kts | 184° |
| 2026-05-06 14:09 | 23.53695 | 51.45636 | 36385 ft | 484 kts | 184° |
| 2026-05-06 14:09 | 23.50325 | 51.45658 | 36644 ft | 484 kts | 184° |
| 2026-05-06 14:09 | 23.46959 | 51.45680 | 36897 ft | 483 kts | 184° |
| 2026-05-06 14:10 | 23.43602 | 51.45701 | 37144 ft | 482 kts | 184° |
| 2026-05-06 14:10 | 23.40249 | 51.45723 | 37391 ft | 481 kts | 184° |
| 2026-05-06 14:10 | 23.36902 | 51.45744 | 37609 ft | 481 kts | 184° |
| 2026-05-06 14:10 | 23.33557 | 51.45765 | 37826 ft | 480 kts | 184° |
| 2026-05-06 14:11 | 23.30215 | 51.45787 | 38051 ft | 480 kts | 184° |
| 2026-05-06 14:11 | 23.26883 | 51.45808 | 38270 ft | 479 kts | 184° |
| 2026-05-06 14:11 | 23.23553 | 51.45830 | 38466 ft | 478 kts | 184° |
| 2026-05-06 14:11 | 23.20220 | 51.45857 | 38623 ft | 478 kts | 184° |
| 2026-05-06 14:12 | 23.13600 | 51.45945 | 38731 ft | 479 kts | 183° |
| 2026-05-06 14:12 | 23.06935 | 51.46046 | 38733 ft | 479 kts | 183° |
| 2026-05-06 14:13 | 23.00271 | 51.46142 | 38730 ft | 479 kts | 183° |
| 2026-05-06 14:13 | 22.93602 | 51.46235 | 38727 ft | 479 kts | 183° |
| 2026-05-06 14:14 | 22.86942 | 51.46745 | 38727 ft | 485 kts | 173° |
| 2026-05-06 14:14 | 22.80554 | 51.49245 | 38724 ft | 496 kts | 154° |
| 2026-05-06 14:15 | 22.74719 | 51.53285 | 38727 ft | 499 kts | 149° |
| 2026-05-06 14:15 | 22.68999 | 51.57577 | 38724 ft | 500 kts | 149° |
| 2026-05-06 14:16 | 22.63284 | 51.61867 | 38724 ft | 500 kts | 149° |
| 2026-05-06 14:16 | 22.57553 | 51.66116 | 38722 ft | 499 kts | 149° |
| 2026-05-06 14:17 | 22.51808 | 51.70347 | 38721 ft | 499 kts | 149° |
| 2026-05-06 14:17 | 22.46066 | 51.74568 | 38714 ft | 499 kts | 149° |
| 2026-05-06 14:18 | 22.40361 | 51.78758 | 38717 ft | 499 kts | 149° |
| 2026-05-06 14:18 | 22.34619 | 51.82973 | 38719 ft | 499 kts | 149° |
| 2026-05-06 14:19 | 22.28874 | 51.87187 | 38718 ft | 499 kts | 149° |
| 2026-05-06 14:19 | 22.23127 | 51.91397 | 38717 ft | 499 kts | 149° |
| 2026-05-06 14:20 | 22.17381 | 51.95602 | 38716 ft | 499 kts | 149° |
| 2026-05-06 14:20 | 22.11637 | 51.99803 | 38716 ft | 499 kts | 149° |
| 2026-05-06 14:21 | 22.05891 | 52.04000 | 38715 ft | 499 kts | 149° |
| 2026-05-06 14:21 | 22.00147 | 52.08191 | 38723 ft | 499 kts | 149° |
| 2026-05-06 14:22 | 21.94400 | 52.12380 | 38712 ft | 499 kts | 149° |
| 2026-05-06 14:22 | 21.88646 | 52.16570 | 38707 ft | 499 kts | 149° |
| 2026-05-06 14:23 | 21.82935 | 52.20725 | 38718 ft | 499 kts | 149° |
| 2026-05-06 14:23 | 21.77187 | 52.24902 | 38716 ft | 498 kts | 148° |
| 2026-05-06 14:24 | 21.71440 | 52.29076 | 38711 ft | 498 kts | 148° |
| 2026-05-06 14:24 | 21.65689 | 52.33247 | 38709 ft | 499 kts | 148° |
| 2026-05-06 14:25 | 21.59928 | 52.37422 | 38702 ft | 499 kts | 148° |
| 2026-05-06 14:25 | 21.54183 | 52.41581 | 38706 ft | 498 kts | 148° |
| 2026-05-06 14:26 | 21.48443 | 52.45734 | 38707 ft | 497 kts | 148° |
| 2026-05-06 14:26 | 21.42701 | 52.49882 | 38709 ft | 497 kts | 148° |
| 2026-05-06 14:27 | 21.36962 | 52.54025 | 38706 ft | 497 kts | 148° |
| 2026-05-06 14:27 | 21.31227 | 52.58161 | 38706 ft | 497 kts | 148° |
| 2026-05-06 14:28 | 21.25495 | 52.62291 | 38704 ft | 497 kts | 148° |
| 2026-05-06 14:28 | 21.19757 | 52.66421 | 38708 ft | 497 kts | 148° |
| 2026-05-06 14:29 | 21.14023 | 52.70544 | 38710 ft | 496 kts | 148° |
| 2026-05-06 14:29 | 21.08290 | 52.74663 | 38700 ft | 496 kts | 148° |
| 2026-05-06 14:30 | 21.02556 | 52.78779 | 38708 ft | 496 kts | 148° |
| 2026-05-06 14:30 | 20.96819 | 52.82893 | 38709 ft | 496 kts | 148° |
| 2026-05-06 14:31 | 20.91084 | 52.87001 | 38704 ft | 496 kts | 148° |
| 2026-05-06 14:31 | 20.85361 | 52.91098 | 38708 ft | 495 kts | 148° |
| 2026-05-06 14:32 | 20.79679 | 52.95161 | 38699 ft | 495 kts | 148° |
| 2026-05-06 14:32 | 20.73957 | 52.99249 | 38708 ft | 495 kts | 148° |
| 2026-05-06 14:33 | 20.68234 | 53.03333 | 38713 ft | 495 kts | 148° |
| 2026-05-06 14:33 | 20.62511 | 53.07414 | 38711 ft | 495 kts | 148° |
| 2026-05-06 14:34 | 20.56784 | 53.11495 | 38717 ft | 495 kts | 148° |
| 2026-05-06 14:34 | 20.51056 | 53.15572 | 38708 ft | 495 kts | 148° |
| 2026-05-06 14:35 | 20.45326 | 53.19646 | 38710 ft | 494 kts | 148° |
| 2026-05-06 14:35 | 20.39612 | 53.23707 | 38711 ft | 494 kts | 148° |
| 2026-05-06 14:36 | 20.33896 | 53.27764 | 38716 ft | 494 kts | 148° |
| 2026-05-06 14:36 | 20.28173 | 53.31823 | 38710 ft | 494 kts | 148° |
| 2026-05-06 14:37 | 20.22455 | 53.35874 | 38719 ft | 494 kts | 148° |
| 2026-05-06 14:37 | 20.16739 | 53.39921 | 38713 ft | 493 kts | 148° |
| 2026-05-06 14:38 | 20.11020 | 53.43965 | 38713 ft | 493 kts | 148° |
| 2026-05-06 14:38 | 20.05304 | 53.48005 | 38717 ft | 493 kts | 148° |
| 2026-05-06 14:39 | 19.99587 | 53.52041 | 38715 ft | 493 kts | 148° |
| 2026-05-06 14:39 | 19.93870 | 53.56075 | 38720 ft | 493 kts | 148° |
| 2026-05-06 14:40 | 19.88153 | 53.60104 | 38718 ft | 493 kts | 148° |
| 2026-05-06 14:40 | 19.82438 | 53.64128 | 38714 ft | 493 kts | 148° |
| 2026-05-06 14:41 | 19.76762 | 53.68121 | 38713 ft | 493 kts | 148° |
| 2026-05-06 14:41 | 19.71048 | 53.72138 | 38711 ft | 493 kts | 148° |
| 2026-05-06 14:42 | 19.65418 | 53.76280 | 38716 ft | 494 kts | 141° |
| 2026-05-06 14:42 | 19.60831 | 53.81698 | 38712 ft | 497 kts | 123° |
| 2026-05-06 14:43 | 19.58041 | 53.88401 | 38714 ft | 500 kts | 109° |
| 2026-05-06 14:43 | 19.56028 | 53.95469 | 38714 ft | 500 kts | 107° |
| 2026-05-06 14:44 | 19.54120 | 54.02559 | 38715 ft | 500 kts | 107° |
| 2026-05-06 14:45 | 19.51172 | 54.13173 | 38716 ft | 500 kts | 108° |
| 2026-05-06 14:45 | 19.49175 | 54.20239 | 38716 ft | 500 kts | 108° |
| 2026-05-06 14:46 | 19.47174 | 54.27299 | 38722 ft | 500 kts | 108° |
| 2026-05-06 14:46 | 19.45172 | 54.34364 | 38722 ft | 500 kts | 108° |
| 2026-05-06 14:47 | 19.43170 | 54.41418 | 38721 ft | 500 kts | 108° |
| 2026-05-06 14:47 | 19.41166 | 54.48474 | 38721 ft | 500 kts | 108° |
| 2026-05-06 14:48 | 19.39175 | 54.55469 | 38719 ft | 499 kts | 108° |
| 2026-05-06 14:48 | 19.37155 | 54.62557 | 38722 ft | 499 kts | 108° |
| 2026-05-06 14:49 | 19.35158 | 54.69548 | 38728 ft | 499 kts | 108° |
| 2026-05-06 14:49 | 19.33145 | 54.76589 | 38731 ft | 499 kts | 108° |
| 2026-05-06 14:50 | 19.31127 | 54.83634 | 38736 ft | 501 kts | 108° |
| 2026-05-06 14:50 | 19.29103 | 54.90688 | 38741 ft | 501 kts | 108° |
| 2026-05-06 14:51 | 19.27076 | 54.97741 | 38746 ft | 501 kts | 108° |
| 2026-05-06 14:51 | 19.25050 | 55.04785 | 38752 ft | 500 kts | 109° |
| 2026-05-06 14:52 | 19.23025 | 55.11811 | 38756 ft | 499 kts | 109° |
| 2026-05-06 14:52 | 19.21338 | 55.17652 | 38765 ft | 499 kts | 108° |
| 2026-05-06 14:53 | 19.19309 | 55.24672 | 38769 ft | 500 kts | 109° |
| 2026-05-06 14:53 | 19.17276 | 55.31694 | 38773 ft | 499 kts | 108° |
| 2026-05-06 14:54 | 19.15239 | 55.38717 | 38772 ft | 499 kts | 109° |
| 2026-05-06 14:54 | 19.13201 | 55.45737 | 38782 ft | 500 kts | 108° |
| 2026-05-06 14:55 | 19.11159 | 55.52755 | 38788 ft | 500 kts | 109° |
| 2026-05-06 14:55 | 19.09103 | 55.59772 | 38786 ft | 498 kts | 109° |
| 2026-05-06 14:56 | 19.06056 | 55.66282 | 38801 ft | 493 kts | 127° |
| 2026-05-06 14:56 | 19.01290 | 55.71402 | 38801 ft | 489 kts | 146° |
| 2026-05-06 14:57 | 18.95221 | 55.74532 | 38800 ft | 487 kts | 165° |
| 2026-05-06 14:57 | 18.88550 | 55.75361 | 38800 ft | 483 kts | 184° |
| 2026-05-06 14:58 | 18.82012 | 55.73848 | 38810 ft | 483 kts | 202° |
| 2026-05-06 14:58 | 18.76304 | 55.70188 | 38804 ft | 483 kts | 221° |
| 2026-05-06 14:59 | 18.71980 | 55.64781 | 38803 ft | 484 kts | 236° |
| 2026-05-06 14:59 | 18.68507 | 55.58688 | 38816 ft | 485 kts | 239° |
| 2026-05-06 15:00 | 18.65174 | 55.52498 | 38800 ft | 485 kts | 239° |
| 2026-05-06 15:00 | 18.61154 | 55.46824 | 38797 ft | 483 kts | 224° |
| 2026-05-06 15:01 | 18.55837 | 55.42565 | 38816 ft | 482 kts | 211° |
| 2026-05-06 15:01 | 18.50038 | 55.39012 | 38800 ft | 481 kts | 208° |
| 2026-05-06 15:02 | 18.44171 | 55.35596 | 38796 ft | 483 kts | 208° |
| 2026-05-06 15:02 | 18.38315 | 55.32151 | 38797 ft | 482 kts | 209° |
| 2026-05-06 15:03 | 18.32468 | 55.28676 | 38800 ft | 482 kts | 209° |
| 2026-05-06 15:03 | 18.26638 | 55.25194 | 38796 ft | 482 kts | 209° |
| 2026-05-06 15:04 | 18.20810 | 55.21712 | 38799 ft | 480 kts | 209° |
| 2026-05-06 15:04 | 18.15011 | 55.18290 | 38810 ft | 482 kts | 206° |
| 2026-05-06 15:05 | 18.08907 | 55.15372 | 38803 ft | 482 kts | 203° |
| 2026-05-06 15:05 | 18.02735 | 55.12591 | 38791 ft | 483 kts | 202° |
| 2026-05-06 15:06 | 17.96557 | 55.09835 | 38798 ft | 482 kts | 202° |
| 2026-05-06 15:06 | 17.90370 | 55.07069 | 38801 ft | 483 kts | 202° |
| 2026-05-06 15:07 | 17.84195 | 55.04302 | 38788 ft | 483 kts | 202° |
| 2026-05-06 15:07 | 17.78009 | 55.01530 | 38805 ft | 484 kts | 202° |
| 2026-05-06 15:08 | 17.71820 | 54.98759 | 38798 ft | 483 kts | 202° |
| 2026-05-06 15:08 | 17.65631 | 54.95990 | 38820 ft | 483 kts | 202° |
| 2026-05-06 15:09 | 17.59451 | 54.93228 | 38815 ft | 484 kts | 202° |
| 2026-05-06 15:09 | 17.53266 | 54.90464 | 38815 ft | 483 kts | 202° |
| 2026-05-06 15:10 | 17.47122 | 54.87722 | 38831 ft | 484 kts | 202° |
| 2026-05-06 15:10 | 17.40926 | 54.84959 | 38830 ft | 483 kts | 202° |
| 2026-05-06 15:11 | 17.34734 | 54.82200 | 38829 ft | 484 kts | 202° |
| 2026-05-06 15:11 | 17.28554 | 54.79421 | 38838 ft | 483 kts | 205° |
| 2026-05-06 15:12 | 17.22720 | 54.75907 | 38849 ft | 485 kts | 211° |
| 2026-05-06 15:12 | 17.17011 | 54.72116 | 38835 ft | 486 kts | 212° |
| 2026-05-06 15:13 | 17.11318 | 54.68278 | 38832 ft | 487 kts | 212° |
| 2026-05-06 15:13 | 17.05624 | 54.64452 | 38848 ft | 487 kts | 212° |
| 2026-05-06 15:14 | 16.99918 | 54.60635 | 38826 ft | 487 kts | 212° |
| 2026-05-06 15:14 | 16.94207 | 54.56822 | 38825 ft | 487 kts | 212° |
| 2026-05-06 15:15 | 16.88499 | 54.53016 | 38811 ft | 488 kts | 212° |
| 2026-05-06 15:15 | 16.82812 | 54.49229 | 38809 ft | 488 kts | 212° |
| 2026-05-06 15:16 | 16.77086 | 54.45408 | 38805 ft | 488 kts | 212° |
| 2026-05-06 15:16 | 16.71366 | 54.41595 | 38795 ft | 488 kts | 212° |
| 2026-05-06 15:17 | 16.65646 | 54.37787 | 38808 ft | 488 kts | 211° |
| 2026-05-06 15:17 | 16.59922 | 54.33979 | 38812 ft | 488 kts | 212° |
| 2026-05-06 15:18 | 16.54200 | 54.30176 | 38813 ft | 488 kts | 212° |
| 2026-05-06 15:18 | 16.48469 | 54.26369 | 38817 ft | 488 kts | 211° |
| 2026-05-06 15:19 | 16.42743 | 54.22569 | 38807 ft | 488 kts | 212° |
| 2026-05-06 15:19 | 16.37016 | 54.18771 | 38827 ft | 488 kts | 211° |
| 2026-05-06 15:20 | 16.31291 | 54.14976 | 38825 ft | 488 kts | 211° |
| 2026-05-06 15:20 | 16.25565 | 54.11184 | 38816 ft | 488 kts | 211° |
| 2026-05-06 15:21 | 16.19834 | 54.07390 | 38814 ft | 488 kts | 212° |
| 2026-05-06 15:21 | 16.14130 | 54.03618 | 38814 ft | 489 kts | 212° |
| 2026-05-06 15:22 | 16.08387 | 53.99821 | 38821 ft | 489 kts | 211° |
| 2026-05-06 15:22 | 16.02652 | 53.96034 | 38827 ft | 488 kts | 211° |
| 2026-05-06 15:23 | 15.96927 | 53.92255 | 38825 ft | 487 kts | 211° |
| 2026-05-06 15:23 | 15.91206 | 53.88481 | 38820 ft | 487 kts | 211° |
| 2026-05-06 15:24 | 15.85465 | 53.84693 | 38843 ft | 490 kts | 212° |
| 2026-05-06 15:24 | 15.79736 | 53.80864 | 38822 ft | 490 kts | 212° |
| 2026-05-06 15:25 | 15.74009 | 53.77023 | 38832 ft | 489 kts | 212° |
| 2026-05-06 15:25 | 15.68288 | 53.73196 | 38823 ft | 489 kts | 212° |
| 2026-05-06 15:26 | 15.62569 | 53.69379 | 38821 ft | 488 kts | 212° |
| 2026-05-06 15:26 | 15.56855 | 53.65569 | 38822 ft | 489 kts | 212° |
| 2026-05-06 15:27 | 15.51126 | 53.61752 | 38822 ft | 490 kts | 212° |
| 2026-05-06 15:27 | 15.45392 | 53.57934 | 38821 ft | 490 kts | 212° |
| 2026-05-06 15:28 | 15.39642 | 53.54148 | 38824 ft | 490 kts | 211° |
| 2026-05-06 15:28 | 15.33837 | 53.50439 | 38822 ft | 490 kts | 211° |
| 2026-05-06 15:29 | 15.28030 | 53.46742 | 38834 ft | 490 kts | 211° |
| 2026-05-06 15:29 | 15.22226 | 53.43033 | 38834 ft | 490 kts | 211° |
| 2026-05-06 15:30 | 15.16424 | 53.39319 | 38821 ft | 490 kts | 211° |
| 2026-05-06 15:30 | 15.10628 | 53.35610 | 38822 ft | 490 kts | 211° |
| 2026-05-06 15:31 | 15.04825 | 53.31899 | 38824 ft | 490 kts | 211° |
| 2026-05-06 15:31 | 14.99026 | 53.28193 | 38822 ft | 490 kts | 211° |
| 2026-05-06 15:32 | 14.90355 | 53.22657 | 38819 ft | 491 kts | 211° |
| 2026-05-06 15:32 | 14.84506 | 53.18925 | 38817 ft | 491 kts | 211° |
| 2026-05-06 15:33 | 14.78692 | 53.15218 | 38821 ft | 491 kts | 211° |
| 2026-05-06 15:33 | 14.72921 | 53.11541 | 38822 ft | 491 kts | 211° |
| 2026-05-06 15:34 | 14.67150 | 53.07766 | 38819 ft | 491 kts | 216° |
| 2026-05-06 15:34 | 14.62061 | 53.03065 | 38817 ft | 491 kts | 224° |
| 2026-05-06 15:35 | 14.57241 | 52.98045 | 38821 ft | 493 kts | 225° |
| 2026-05-06 15:35 | 14.52459 | 52.92969 | 38819 ft | 493 kts | 225° |
| 2026-05-06 15:36 | 14.47673 | 52.87911 | 38818 ft | 493 kts | 225° |
| 2026-05-06 15:36 | 14.42871 | 52.82860 | 38819 ft | 493 kts | 225° |
| 2026-05-06 15:37 | 14.38068 | 52.77822 | 38820 ft | 493 kts | 225° |
| 2026-05-06 15:37 | 14.33265 | 52.72786 | 38816 ft | 492 kts | 225° |
| 2026-05-06 15:38 | 14.28468 | 52.67759 | 38817 ft | 491 kts | 225° |
| 2026-05-06 15:38 | 14.23671 | 52.62735 | 38817 ft | 492 kts | 225° |
| 2026-05-06 15:39 | 14.18872 | 52.57712 | 38817 ft | 492 kts | 225° |
| 2026-05-06 15:39 | 14.14879 | 52.53535 | 38820 ft | 492 kts | 225° |
| 2026-05-06 15:40 | 14.10082 | 52.48519 | 38820 ft | 490 kts | 225° |
| 2026-05-06 15:40 | 14.05295 | 52.43518 | 38817 ft | 490 kts | 225° |
| 2026-05-06 15:41 | 14.00509 | 52.38521 | 38818 ft | 490 kts | 225° |
| 2026-05-06 15:41 | 13.95721 | 52.33525 | 38814 ft | 490 kts | 225° |
| 2026-05-06 15:42 | 13.90933 | 52.28532 | 38818 ft | 490 kts | 225° |
| 2026-05-06 15:42 | 13.86146 | 52.23543 | 38817 ft | 490 kts | 225° |
| 2026-05-06 15:43 | 13.81538 | 52.18743 | 38819 ft | 489 kts | 225° |
| 2026-05-06 15:43 | 13.76751 | 52.13761 | 38818 ft | 489 kts | 225° |
| 2026-05-06 15:44 | 13.71969 | 52.08786 | 38818 ft | 489 kts | 225° |
| 2026-05-06 15:44 | 13.67211 | 52.03840 | 38820 ft | 489 kts | 225° |
| 2026-05-06 15:45 | 13.62429 | 51.98871 | 38811 ft | 489 kts | 225° |
| 2026-05-06 15:45 | 13.57647 | 51.93906 | 38812 ft | 489 kts | 225° |
| 2026-05-06 15:46 | 13.52868 | 51.88945 | 38812 ft | 488 kts | 225° |
| 2026-05-06 15:46 | 13.48130 | 51.83956 | 38811 ft | 488 kts | 225° |
| 2026-05-06 15:47 | 13.43403 | 51.78955 | 38817 ft | 487 kts | 225° |
| 2026-05-06 15:47 | 13.38677 | 51.73969 | 38817 ft | 487 kts | 225° |
| 2026-05-06 15:48 | 13.33956 | 51.69000 | 38812 ft | 486 kts | 225° |
| 2026-05-06 15:48 | 13.29231 | 51.64033 | 38811 ft | 486 kts | 225° |
| 2026-05-06 15:49 | 13.24506 | 51.59069 | 38812 ft | 486 kts | 225° |
| 2026-05-06 15:49 | 13.19776 | 51.54103 | 38813 ft | 486 kts | 225° |
| 2026-05-06 15:50 | 13.15060 | 51.49153 | 38812 ft | 485 kts | 225° |
| 2026-05-06 15:50 | 13.10344 | 51.44206 | 38812 ft | 485 kts | 225° |
| 2026-05-06 15:51 | 13.05658 | 51.39295 | 38813 ft | 485 kts | 225° |
| 2026-05-06 15:51 | 13.00943 | 51.34355 | 38811 ft | 485 kts | 225° |
| 2026-05-06 15:52 | 12.96225 | 51.29414 | 38811 ft | 484 kts | 225° |
| 2026-05-06 15:52 | 12.91515 | 51.24485 | 38814 ft | 484 kts | 225° |
| 2026-05-06 15:53 | 12.86804 | 51.19559 | 38809 ft | 484 kts | 225° |
| 2026-05-06 15:53 | 12.82093 | 51.14634 | 38809 ft | 484 kts | 225° |
| 2026-05-06 15:54 | 12.77374 | 51.09704 | 38813 ft | 484 kts | 225° |
| 2026-05-06 15:54 | 12.72660 | 51.04782 | 38807 ft | 484 kts | 225° |
| 2026-05-06 15:55 | 12.67946 | 50.99863 | 38811 ft | 483 kts | 225° |
| 2026-05-06 15:55 | 12.63225 | 50.94940 | 38810 ft | 484 kts | 225° |
| 2026-05-06 15:56 | 12.58504 | 50.90020 | 38809 ft | 485 kts | 225° |
| 2026-05-06 15:56 | 12.53791 | 50.85111 | 38806 ft | 483 kts | 225° |
| 2026-05-06 15:57 | 12.49077 | 50.80203 | 38802 ft | 482 kts | 225° |
| 2026-05-06 15:57 | 12.44384 | 50.75319 | 38804 ft | 483 kts | 225° |
| 2026-05-06 15:58 | 12.39665 | 50.70413 | 38808 ft | 483 kts | 225° |
| 2026-05-06 15:58 | 12.34984 | 50.65547 | 38801 ft | 482 kts | 225° |
| 2026-05-06 15:59 | 12.30270 | 50.60651 | 38801 ft | 484 kts | 225° |
| 2026-05-06 15:59 | 12.25540 | 50.55740 | 38801 ft | 485 kts | 225° |
| 2026-05-06 16:00 | 12.20808 | 50.50830 | 38804 ft | 485 kts | 225° |
| 2026-05-06 16:00 | 12.16077 | 50.45923 | 38810 ft | 485 kts | 225° |
| 2026-05-06 16:01 | 12.11495 | 50.40850 | 38810 ft | 485 kts | 228° |
| 2026-05-06 16:01 | 12.07039 | 50.35673 | 38806 ft | 485 kts | 229° |
| 2026-05-06 16:02 | 12.02560 | 50.30513 | 38809 ft | 485 kts | 228° |
| 2026-05-06 16:02 | 11.98055 | 50.25381 | 38809 ft | 485 kts | 228° |
| 2026-05-06 16:03 | 11.93536 | 50.20258 | 38809 ft | 485 kts | 228° |
| 2026-05-06 16:03 | 11.89017 | 50.15139 | 38816 ft | 485 kts | 228° |
| 2026-05-06 16:04 | 11.84500 | 50.10023 | 38815 ft | 485 kts | 228° |
| 2026-05-06 16:04 | 11.79978 | 50.04903 | 38815 ft | 485 kts | 228° |
| 2026-05-06 16:05 | 11.75459 | 49.99787 | 38823 ft | 485 kts | 228° |
| 2026-05-06 16:05 | 11.70940 | 49.94675 | 38823 ft | 485 kts | 227° |
| 2026-05-06 16:06 | 11.66449 | 49.89598 | 38826 ft | 485 kts | 227° |
| 2026-05-06 16:06 | 11.61932 | 49.84493 | 38827 ft | 485 kts | 227° |
| 2026-05-06 16:07 | 11.57414 | 49.79390 | 38827 ft | 485 kts | 227° |
| 2026-05-06 16:07 | 11.52894 | 49.74288 | 38828 ft | 485 kts | 227° |
| 2026-05-06 16:08 | 11.48374 | 49.69188 | 38842 ft | 485 kts | 227° |
| 2026-05-06 16:08 | 11.43855 | 49.64092 | 38845 ft | 485 kts | 227° |
| 2026-05-06 16:09 | 11.39333 | 49.58996 | 38844 ft | 485 kts | 227° |
| 2026-05-06 16:09 | 11.34685 | 49.54025 | 38861 ft | 484 kts | 224° |
| 2026-05-06 16:10 | 11.29888 | 49.49208 | 38852 ft | 484 kts | 224° |
| 2026-05-06 16:10 | 11.25102 | 49.44384 | 38851 ft | 484 kts | 225° |
| 2026-05-06 16:11 | 11.20346 | 49.39538 | 38859 ft | 484 kts | 225° |
| 2026-05-06 16:11 | 11.15600 | 49.34680 | 38848 ft | 484 kts | 225° |
| 2026-05-06 16:12 | 11.10860 | 49.29828 | 38849 ft | 483 kts | 225° |
| 2026-05-06 16:12 | 11.06123 | 49.24984 | 38853 ft | 482 kts | 225° |
| 2026-05-06 16:13 | 11.01385 | 49.20142 | 38852 ft | 482 kts | 225° |
| 2026-05-06 16:13 | 10.96651 | 49.15307 | 38852 ft | 482 kts | 225° |
| 2026-05-06 16:14 | 10.91916 | 49.10474 | 38859 ft | 482 kts | 225° |
| 2026-05-06 16:14 | 10.87173 | 49.05635 | 38858 ft | 482 kts | 225° |
| 2026-05-06 16:15 | 10.82438 | 49.00806 | 38865 ft | 482 kts | 225° |
| 2026-05-06 16:15 | 10.77710 | 48.95986 | 38863 ft | 481 kts | 225° |
| 2026-05-06 16:16 | 10.72982 | 48.91170 | 38865 ft | 481 kts | 225° |
| 2026-05-06 16:16 | 10.68262 | 48.86363 | 38871 ft | 481 kts | 225° |
| 2026-05-06 16:17 | 10.63531 | 48.81548 | 38877 ft | 481 kts | 225° |
| 2026-05-06 16:17 | 10.58808 | 48.76742 | 38877 ft | 481 kts | 225° |
| 2026-05-06 16:18 | 10.54111 | 48.71965 | 38873 ft | 481 kts | 225° |
| 2026-05-06 16:18 | 10.49383 | 48.67159 | 38874 ft | 481 kts | 225° |
| 2026-05-06 16:19 | 10.44666 | 48.62366 | 38879 ft | 479 kts | 224° |
| 2026-05-06 16:19 | 10.39968 | 48.57595 | 38872 ft | 476 kts | 224° |
| 2026-05-06 16:20 | 10.35282 | 48.52838 | 38876 ft | 476 kts | 224° |
| 2026-05-06 16:20 | 10.30600 | 48.48088 | 38876 ft | 477 kts | 224° |
| 2026-05-06 16:21 | 10.25911 | 48.43333 | 38870 ft | 476 kts | 224° |
| 2026-05-06 16:21 | 10.21217 | 48.38574 | 38872 ft | 477 kts | 224° |
| 2026-05-06 16:22 | 10.16518 | 48.33813 | 38874 ft | 478 kts | 224° |
| 2026-05-06 16:22 | 10.11804 | 48.29038 | 38871 ft | 480 kts | 224° |
| 2026-05-06 16:23 | 10.07071 | 48.24246 | 38871 ft | 481 kts | 224° |
| 2026-05-06 16:23 | 10.02328 | 48.19447 | 38859 ft | 481 kts | 224° |
| 2026-05-06 16:24 | 9.97585 | 48.14649 | 38863 ft | 481 kts | 224° |
| 2026-05-06 16:24 | 9.92842 | 48.09854 | 38863 ft | 481 kts | 224° |
| 2026-05-06 16:25 | 9.88100 | 48.05061 | 38858 ft | 481 kts | 224° |
| 2026-05-06 16:25 | 9.83357 | 48.00269 | 38860 ft | 481 kts | 224° |
| 2026-05-06 16:26 | 9.78607 | 47.95473 | 38858 ft | 482 kts | 224° |
| 2026-05-06 16:26 | 9.73858 | 47.90680 | 38858 ft | 482 kts | 224° |
| 2026-05-06 16:27 | 9.69903 | 47.86689 | 38858 ft | 482 kts | 224° |
| 2026-05-06 16:27 | 9.65150 | 47.81895 | 38860 ft | 482 kts | 224° |
| 2026-05-06 16:28 | 9.60398 | 47.77105 | 38855 ft | 482 kts | 224° |
| 2026-05-06 16:28 | 9.55638 | 47.72309 | 38855 ft | 482 kts | 224° |
| 2026-05-06 16:29 | 9.50880 | 47.67516 | 38842 ft | 482 kts | 224° |
| 2026-05-06 16:29 | 9.46113 | 47.62716 | 38843 ft | 484 kts | 224° |
| 2026-05-06 16:30 | 9.42148 | 47.58725 | 38841 ft | 484 kts | 224° |
| 2026-05-06 16:30 | 9.36592 | 47.53136 | 38838 ft | 484 kts | 224° |
| 2026-05-06 16:31 | 9.31781 | 47.48298 | 38836 ft | 484 kts | 224° |
| 2026-05-06 16:31 | 9.27031 | 47.43523 | 38835 ft | 484 kts | 224° |
| 2026-05-06 16:32 | 9.22247 | 47.38716 | 38830 ft | 485 kts | 224° |
| 2026-05-06 16:32 | 9.17467 | 47.33907 | 38829 ft | 485 kts | 225° |
| 2026-05-06 16:33 | 9.12782 | 47.29000 | 38832 ft | 485 kts | 226° |
| 2026-05-06 16:34 | 9.05803 | 47.21578 | 38829 ft | 485 kts | 226° |
| 2026-05-06 16:34 | 9.01134 | 47.16651 | 38833 ft | 485 kts | 226° |
| 2026-05-06 16:35 | 8.96464 | 47.11739 | 38835 ft | 484 kts | 226° |
| 2026-05-06 16:35 | 8.91786 | 47.06824 | 38835 ft | 484 kts | 226° |
| 2026-05-06 16:36 | 8.87111 | 47.01913 | 38838 ft | 484 kts | 226° |
| 2026-05-06 16:36 | 8.82434 | 46.97001 | 38838 ft | 486 kts | 226° |
| 2026-05-06 16:37 | 8.77739 | 46.92072 | 38852 ft | 487 kts | 226° |
| 2026-05-06 16:37 | 8.73033 | 46.87132 | 38859 ft | 488 kts | 226° |
| 2026-05-06 16:38 | 8.68324 | 46.82192 | 38857 ft | 488 kts | 226° |
| 2026-05-06 16:38 | 8.63613 | 46.77251 | 38859 ft | 488 kts | 226° |
| 2026-05-06 16:39 | 8.58906 | 46.72317 | 38867 ft | 488 kts | 226° |
| 2026-05-06 16:39 | 8.54190 | 46.67374 | 38867 ft | 488 kts | 226° |
| 2026-05-06 16:40 | 8.49479 | 46.62439 | 38871 ft | 488 kts | 226° |
| 2026-05-06 16:40 | 8.44764 | 46.57503 | 38870 ft | 488 kts | 226° |
| 2026-05-06 16:41 | 8.40057 | 46.52575 | 38873 ft | 487 kts | 226° |
| 2026-05-06 16:41 | 8.35353 | 46.47654 | 38873 ft | 486 kts | 226° |
| 2026-05-06 16:42 | 8.30651 | 46.42736 | 38872 ft | 487 kts | 226° |
| 2026-05-06 16:42 | 8.25952 | 46.37822 | 38872 ft | 486 kts | 226° |
| 2026-05-06 16:43 | 8.21254 | 46.32912 | 38871 ft | 486 kts | 225° |
| 2026-05-06 16:43 | 8.16603 | 46.27992 | 38875 ft | 487 kts | 226° |
| 2026-05-06 16:44 | 8.11955 | 46.23011 | 38879 ft | 488 kts | 226° |
| 2026-05-06 16:44 | 8.07304 | 46.18037 | 38881 ft | 488 kts | 226° |
| 2026-05-06 16:45 | 8.02640 | 46.13064 | 38881 ft | 487 kts | 226° |
| 2026-05-06 16:45 | 7.97982 | 46.08105 | 38885 ft | 487 kts | 226° |
| 2026-05-06 16:46 | 7.93325 | 46.03150 | 38883 ft | 487 kts | 226° |
| 2026-05-06 16:46 | 7.88665 | 45.98193 | 38886 ft | 488 kts | 226° |
| 2026-05-06 16:47 | 7.83984 | 45.93213 | 38886 ft | 489 kts | 226° |
| 2026-05-06 16:47 | 7.79308 | 45.88242 | 38887 ft | 490 kts | 226° |
| 2026-05-06 16:48 | 7.74619 | 45.83259 | 38885 ft | 490 kts | 226° |
| 2026-05-06 16:48 | 7.69932 | 45.78279 | 38886 ft | 490 kts | 226° |
| 2026-05-06 16:49 | 7.65246 | 45.73300 | 38886 ft | 488 kts | 226° |
| 2026-05-06 16:49 | 7.60564 | 45.68345 | 38884 ft | 488 kts | 225° |
| 2026-05-06 16:50 | 7.55871 | 45.63387 | 38887 ft | 489 kts | 226° |
| 2026-05-06 16:50 | 7.51173 | 45.58421 | 38883 ft | 489 kts | 226° |
| 2026-05-06 16:51 | 7.46479 | 45.53459 | 38885 ft | 488 kts | 225° |
| 2026-05-06 16:51 | 7.41790 | 45.48503 | 38886 ft | 488 kts | 225° |
| 2026-05-06 16:52 | 7.37138 | 45.43588 | 38889 ft | 488 kts | 225° |
| 2026-05-06 16:52 | 7.32452 | 45.38637 | 38888 ft | 488 kts | 225° |
| 2026-05-06 16:53 | 7.27768 | 45.33692 | 38889 ft | 488 kts | 225° |
| 2026-05-06 16:53 | 7.23075 | 45.28739 | 38886 ft | 490 kts | 225° |
| 2026-05-06 16:54 | 7.18365 | 45.23769 | 38885 ft | 490 kts | 225° |
| 2026-05-06 16:54 | 7.13660 | 45.18806 | 38886 ft | 490 kts | 225° |
| 2026-05-06 16:55 | 7.08955 | 45.13844 | 38886 ft | 490 kts | 225° |
| 2026-05-06 16:55 | 7.04252 | 45.08887 | 38886 ft | 490 kts | 225° |
| 2026-05-06 16:56 | 6.99545 | 45.03927 | 38886 ft | 490 kts | 225° |
| 2026-05-06 16:56 | 6.94834 | 44.98964 | 38884 ft | 491 kts | 225° |
| 2026-05-06 16:57 | 6.90110 | 44.93988 | 38880 ft | 492 kts | 225° |
| 2026-05-06 16:57 | 6.85381 | 44.89009 | 38875 ft | 492 kts | 225° |
| 2026-05-06 16:58 | 6.80651 | 44.84030 | 38875 ft | 492 kts | 225° |
| 2026-05-06 16:58 | 6.75923 | 44.79056 | 38870 ft | 492 kts | 225° |
| 2026-05-06 16:59 | 6.71188 | 44.74074 | 38871 ft | 493 kts | 225° |
| 2026-05-06 16:59 | 6.66447 | 44.69101 | 38868 ft | 493 kts | 225° |
| 2026-05-06 17:00 | 6.61696 | 44.64127 | 38870 ft | 493 kts | 225° |
| 2026-05-06 17:00 | 6.56950 | 44.59159 | 38870 ft | 493 kts | 225° |
| 2026-05-06 17:01 | 6.52202 | 44.54189 | 38868 ft | 492 kts | 225° |
| 2026-05-06 17:01 | 6.47454 | 44.49218 | 38861 ft | 493 kts | 225° |
| 2026-05-06 17:02 | 6.42705 | 44.44249 | 38862 ft | 493 kts | 225° |
| 2026-05-06 17:02 | 6.37948 | 44.39273 | 38862 ft | 493 kts | 225° |
| 2026-05-06 17:03 | 6.33192 | 44.34299 | 38864 ft | 493 kts | 225° |
| 2026-05-06 17:03 | 6.28439 | 44.29329 | 38861 ft | 493 kts | 225° |
| 2026-05-06 17:04 | 6.23717 | 44.24394 | 38861 ft | 493 kts | 225° |
| 2026-05-06 17:04 | 6.18963 | 44.19426 | 38862 ft | 493 kts | 225° |
| 2026-05-06 17:05 | 6.14212 | 44.14463 | 38865 ft | 493 kts | 225° |
| 2026-05-06 17:05 | 6.09460 | 44.09500 | 38862 ft | 493 kts | 225° |
| 2026-05-06 17:06 | 6.04707 | 44.04538 | 38859 ft | 493 kts | 225° |
| 2026-05-06 17:06 | 5.99951 | 43.99574 | 38857 ft | 493 kts | 226° |
| 2026-05-06 17:07 | 5.95196 | 43.94612 | 38856 ft | 493 kts | 225° |
| 2026-05-06 17:07 | 5.90440 | 43.89651 | 38857 ft | 493 kts | 225° |
| 2026-05-06 17:08 | 5.85686 | 43.84692 | 38858 ft | 493 kts | 226° |
| 2026-05-06 17:08 | 5.80932 | 43.79736 | 38858 ft | 493 kts | 225° |
| 2026-05-06 17:09 | 5.76175 | 43.74777 | 38858 ft | 493 kts | 225° |
| 2026-05-06 17:09 | 5.71420 | 43.69821 | 38855 ft | 493 kts | 226° |
| 2026-05-06 17:10 | 5.66655 | 43.64857 | 38862 ft | 493 kts | 225° |
| 2026-05-06 17:10 | 5.61885 | 43.59904 | 38868 ft | 494 kts | 226° |
| 2026-05-06 17:11 | 5.57110 | 43.54952 | 38871 ft | 494 kts | 226° |
| 2026-05-06 17:11 | 5.52333 | 43.50000 | 38871 ft | 494 kts | 225° |
| 2026-05-06 17:12 | 5.47547 | 43.45037 | 38874 ft | 495 kts | 226° |
| 2026-05-06 17:12 | 5.42780 | 43.40095 | 38877 ft | 496 kts | 225° |
| 2026-05-06 17:13 | 5.38772 | 43.35941 | 38875 ft | 496 kts | 225° |
| 2026-05-06 17:13 | 5.33971 | 43.30966 | 38880 ft | 496 kts | 225° |
| 2026-05-06 17:14 | 5.29173 | 43.25994 | 38879 ft | 496 kts | 225° |
| 2026-05-06 17:14 | 5.24372 | 43.21022 | 38877 ft | 496 kts | 225° |
| 2026-05-06 17:15 | 5.19568 | 43.16048 | 38883 ft | 497 kts | 225° |
| 2026-05-06 17:15 | 5.14764 | 43.11073 | 38884 ft | 496 kts | 225° |
| 2026-05-06 17:16 | 5.09957 | 43.06098 | 38880 ft | 496 kts | 225° |
| 2026-05-06 17:16 | 5.05147 | 43.01121 | 38879 ft | 496 kts | 225° |
| 2026-05-06 17:17 | 5.00339 | 42.96146 | 38877 ft | 497 kts | 226° |
| 2026-05-06 17:17 | 4.95526 | 42.91169 | 38879 ft | 497 kts | 225° |
| 2026-05-06 17:18 | 4.90718 | 42.86196 | 38879 ft | 497 kts | 226° |
| 2026-05-06 17:18 | 4.85908 | 42.81223 | 38877 ft | 497 kts | 226° |
| 2026-05-06 17:19 | 4.81097 | 42.76251 | 38877 ft | 497 kts | 225° |
| 2026-05-06 17:19 | 4.76288 | 42.71281 | 38875 ft | 497 kts | 226° |
| 2026-05-06 17:20 | 4.71476 | 42.66309 | 38872 ft | 496 kts | 226° |
| 2026-05-06 17:20 | 4.66702 | 42.61377 | 38869 ft | 496 kts | 225° |
| 2026-05-06 17:21 | 4.61894 | 42.56412 | 38870 ft | 496 kts | 226° |
| 2026-05-06 17:21 | 4.57085 | 42.51446 | 38867 ft | 496 kts | 225° |
| 2026-05-06 17:22 | 4.52276 | 42.46481 | 38869 ft | 496 kts | 226° |
| 2026-05-06 17:22 | 4.47468 | 42.41520 | 38866 ft | 496 kts | 226° |
| 2026-05-06 17:23 | 4.42664 | 42.36561 | 38866 ft | 495 kts | 226° |
| 2026-05-06 17:23 | 4.37862 | 42.31607 | 38861 ft | 495 kts | 226° |
| 2026-05-06 17:24 | 4.33062 | 42.26656 | 38861 ft | 495 kts | 226° |
| 2026-05-06 17:24 | 4.28258 | 42.21701 | 38863 ft | 496 kts | 226° |
| 2026-05-06 17:25 | 4.23453 | 42.16746 | 38860 ft | 496 kts | 226° |
| 2026-05-06 17:25 | 4.18641 | 42.11786 | 38861 ft | 496 kts | 225° |
| 2026-05-06 17:26 | 4.13830 | 42.06827 | 38862 ft | 496 kts | 226° |
| 2026-05-06 17:26 | 4.09018 | 42.01868 | 38861 ft | 496 kts | 226° |
| 2026-05-06 17:27 | 4.04204 | 41.96908 | 38864 ft | 497 kts | 225° |
| 2026-05-06 17:27 | 3.99388 | 41.91947 | 38869 ft | 497 kts | 225° |
| 2026-05-06 17:28 | 3.94549 | 41.87020 | 38870 ft | 496 kts | 222° |
| 2026-05-06 17:28 | 3.89354 | 41.82580 | 38873 ft | 495 kts | 219° |
| 2026-05-06 17:29 | 3.83983 | 41.78170 | 38877 ft | 495 kts | 219° |
| 2026-05-06 17:29 | 3.78643 | 41.73818 | 38878 ft | 495 kts | 219° |
| 2026-05-06 17:30 | 3.73303 | 41.69460 | 38882 ft | 495 kts | 219° |
| 2026-05-06 17:30 | 3.68004 | 41.65126 | 38889 ft | 495 kts | 219° |
| 2026-05-06 17:31 | 3.62676 | 41.60767 | 38892 ft | 494 kts | 219° |
| 2026-05-06 17:31 | 3.57348 | 41.56408 | 38895 ft | 494 kts | 219° |
| 2026-05-06 17:32 | 3.52021 | 41.52051 | 38902 ft | 495 kts | 219° |
| 2026-05-06 17:32 | 3.46690 | 41.47691 | 38899 ft | 495 kts | 219° |
| 2026-05-06 17:33 | 3.41356 | 41.43330 | 38906 ft | 495 kts | 219° |
| 2026-05-06 17:33 | 3.36031 | 41.38977 | 38907 ft | 495 kts | 219° |
| 2026-05-06 17:34 | 3.30704 | 41.34624 | 38905 ft | 495 kts | 219° |
| 2026-05-06 17:34 | 3.25371 | 41.30265 | 38907 ft | 495 kts | 219° |
| 2026-05-06 17:35 | 3.20029 | 41.25900 | 38909 ft | 495 kts | 219° |
| 2026-05-06 17:35 | 3.14695 | 41.21542 | 38908 ft | 495 kts | 219° |
| 2026-05-06 17:36 | 3.06706 | 41.15016 | 38905 ft | 494 kts | 219° |
| 2026-05-06 17:36 | 3.01383 | 41.10668 | 38906 ft | 494 kts | 219° |
| 2026-05-06 17:37 | 2.96085 | 41.06341 | 38905 ft | 495 kts | 219° |
| 2026-05-06 17:37 | 2.90756 | 41.01991 | 38905 ft | 495 kts | 219° |
| 2026-05-06 17:38 | 2.85429 | 40.97641 | 38904 ft | 495 kts | 219° |
| 2026-05-06 17:38 | 2.80096 | 40.93288 | 38905 ft | 495 kts | 219° |
| 2026-05-06 17:39 | 2.74767 | 40.88938 | 38906 ft | 494 kts | 219° |
| 2026-05-06 17:39 | 2.69432 | 40.84584 | 38906 ft | 495 kts | 219° |
| 2026-05-06 17:40 | 2.64100 | 40.80233 | 38907 ft | 495 kts | 219° |
| 2026-05-06 17:40 | 2.58764 | 40.75879 | 38909 ft | 495 kts | 219° |
| 2026-05-06 17:41 | 2.53426 | 40.71524 | 38907 ft | 495 kts | 219° |
| 2026-05-06 17:41 | 2.48093 | 40.67174 | 38907 ft | 495 kts | 219° |
| 2026-05-06 17:42 | 2.42759 | 40.62823 | 38909 ft | 495 kts | 219° |
| 2026-05-06 17:42 | 2.37421 | 40.58480 | 38909 ft | 495 kts | 219° |
| 2026-05-06 17:43 | 2.32040 | 40.54180 | 38911 ft | 495 kts | 219° |
| 2026-05-06 17:43 | 2.26663 | 40.49879 | 38912 ft | 495 kts | 219° |
| 2026-05-06 17:44 | 2.21288 | 40.45575 | 38909 ft | 495 kts | 219° |
| 2026-05-06 17:44 | 2.15909 | 40.41267 | 38910 ft | 495 kts | 219° |
| 2026-05-06 17:45 | 2.10535 | 40.36963 | 38906 ft | 495 kts | 219° |
| 2026-05-06 17:45 | 2.05161 | 40.32658 | 38906 ft | 495 kts | 219° |
| 2026-05-06 17:46 | 1.99787 | 40.28354 | 38901 ft | 495 kts | 219° |
| 2026-05-06 17:46 | 1.94406 | 40.24045 | 38889 ft | 495 kts | 219° |
| 2026-05-06 17:47 | 1.89028 | 40.19738 | 38876 ft | 495 kts | 219° |
| 2026-05-06 17:47 | 1.83647 | 40.15430 | 38862 ft | 495 kts | 220° |
| 2026-05-06 17:48 | 1.78270 | 40.11125 | 38856 ft | 495 kts | 219° |
| 2026-05-06 17:48 | 1.73028 | 40.06662 | 38855 ft | 494 kts | 225° |
| 2026-05-06 17:49 | 1.68097 | 40.01885 | 38857 ft | 493 kts | 225° |
| 2026-05-06 17:49 | 1.63173 | 39.97104 | 38869 ft | 493 kts | 225° |
| 2026-05-06 17:50 | 1.58244 | 39.92324 | 38880 ft | 494 kts | 225° |
| 2026-05-06 17:50 | 1.53314 | 39.87547 | 38894 ft | 494 kts | 225° |
| 2026-05-06 17:51 | 1.48384 | 39.82770 | 38907 ft | 493 kts | 225° |
| 2026-05-06 17:51 | 1.43458 | 39.77997 | 38911 ft | 494 kts | 224° |
| 2026-05-06 17:52 | 1.38524 | 39.73217 | 38911 ft | 494 kts | 224° |
| 2026-05-06 17:52 | 1.33594 | 39.68442 | 38911 ft | 494 kts | 224° |
| 2026-05-06 17:53 | 1.28662 | 39.63664 | 38906 ft | 494 kts | 224° |
| 2026-05-06 17:53 | 1.23731 | 39.58888 | 38905 ft | 494 kts | 225° |
| 2026-05-06 17:54 | 1.18794 | 39.54107 | 38908 ft | 493 kts | 224° |
| 2026-05-06 17:54 | 1.13872 | 39.49340 | 38908 ft | 491 kts | 225° |
| 2026-05-06 17:55 | 1.08975 | 39.44597 | 38905 ft | 490 kts | 225° |
| 2026-05-06 17:55 | 1.04082 | 39.39859 | 38906 ft | 490 kts | 225° |
| 2026-05-06 17:56 | 1.00018 | 39.35924 | 38900 ft | 490 kts | 225° |
| 2026-05-06 17:56 | 0.95131 | 39.31191 | 38900 ft | 489 kts | 225° |
| 2026-05-06 17:57 | 0.90247 | 39.26462 | 38902 ft | 488 kts | 225° |
| 2026-05-06 17:57 | 0.85376 | 39.21746 | 38905 ft | 487 kts | 225° |
| 2026-05-06 17:58 | 0.80515 | 39.17040 | 38904 ft | 486 kts | 225° |
| 2026-05-06 17:58 | 0.75662 | 39.12341 | 38903 ft | 486 kts | 225° |
| 2026-05-06 17:59 | 0.70813 | 39.07647 | 38905 ft | 484 kts | 225° |
| 2026-05-06 17:59 | 0.65978 | 39.02966 | 38906 ft | 483 kts | 225° |
| 2026-05-06 18:00 | 0.61147 | 38.98289 | 38907 ft | 483 kts | 225° |
| 2026-05-06 18:00 | 0.56323 | 38.93620 | 38910 ft | 483 kts | 225° |
| 2026-05-06 18:01 | 0.51502 | 38.88954 | 38905 ft | 483 kts | 225° |
| 2026-05-06 18:01 | 0.46673 | 38.84278 | 38911 ft | 484 kts | 226° |
| 2026-05-06 18:02 | 0.41832 | 38.79591 | 38913 ft | 484 kts | 225° |
| 2026-05-06 18:02 | 0.36986 | 38.74902 | 38915 ft | 485 kts | 225° |
| 2026-05-06 18:03 | 0.32142 | 38.70213 | 38916 ft | 485 kts | 226° |
| 2026-05-06 18:03 | 0.27297 | 38.65523 | 38928 ft | 486 kts | 226° |
| 2026-05-06 18:04 | 0.22432 | 38.60813 | 38930 ft | 488 kts | 225° |
| 2026-05-06 18:04 | 0.17552 | 38.56090 | 38932 ft | 488 kts | 225° |
| 2026-05-06 18:05 | 0.12671 | 38.51366 | 38929 ft | 488 kts | 225° |
| 2026-05-06 18:05 | 0.07798 | 38.46650 | 38944 ft | 488 kts | 225° |
| 2026-05-06 18:06 | 0.02916 | 38.41925 | 38944 ft | 488 kts | 225° |
| 2026-05-06 18:06 | -0.01958 | 38.37207 | 38955 ft | 488 kts | 225° |
| 2026-05-06 18:07 | -0.06817 | 38.32504 | 38957 ft | 485 kts | 225° |
| 2026-05-06 18:07 | -0.11671 | 38.27806 | 38971 ft | 485 kts | 225° |
| 2026-05-06 18:08 | -0.16519 | 38.23113 | 38971 ft | 485 kts | 225° |
| 2026-05-06 18:08 | -0.21365 | 38.18422 | 38981 ft | 485 kts | 225° |
| 2026-05-06 18:09 | -0.26223 | 38.13719 | 38990 ft | 487 kts | 225° |
| 2026-05-06 18:09 | -0.31093 | 38.09006 | 39002 ft | 487 kts | 225° |
| 2026-05-06 18:10 | -0.35961 | 38.04295 | 39001 ft | 488 kts | 225° |
| 2026-05-06 18:10 | -0.40834 | 37.99578 | 39022 ft | 488 kts | 225° |
| 2026-05-06 18:11 | -0.45705 | 37.94863 | 39025 ft | 488 kts | 225° |
| 2026-05-06 18:11 | -0.50575 | 37.90149 | 39049 ft | 487 kts | 225° |
| 2026-05-06 18:12 | -0.55405 | 37.85473 | 38915 ft | 484 kts | 225° |
| 2026-05-06 18:12 | -0.57757 | 37.83197 | 38187 ft | 485 kts | 225° |
| 2026-05-06 18:12 | -0.60185 | 37.80846 | 37339 ft | 488 kts | 225° |
| 2026-05-06 18:13 | -0.62623 | 37.78486 | 36621 ft | 488 kts | 225° |
| 2026-05-06 18:13 | -0.65060 | 37.76126 | 35911 ft | 489 kts | 224° |
| 2026-05-06 18:13 | -0.67505 | 37.73759 | 35203 ft | 490 kts | 224° |
| 2026-05-06 18:13 | -0.69959 | 37.71383 | 34402 ft | 494 kts | 224° |
| 2026-05-06 18:14 | -0.72439 | 37.68982 | 33487 ft | 498 kts | 224° |
| 2026-05-06 18:14 | -0.74931 | 37.66570 | 32594 ft | 500 kts | 224° |
| 2026-05-06 18:14 | -0.77438 | 37.64144 | 31684 ft | 503 kts | 224° |
| 2026-05-06 18:14 | -0.79962 | 37.61700 | 30750 ft | 507 kts | 224° |
| 2026-05-06 18:15 | -0.82500 | 37.59243 | 29719 ft | 511 kts | 224° |
| 2026-05-06 18:15 | -0.85062 | 37.56763 | 28754 ft | 512 kts | 224° |
| 2026-05-06 18:15 | -0.87607 | 37.54299 | 28058 ft | 507 kts | 224° |
| 2026-05-06 18:15 | -0.90132 | 37.51854 | 27378 ft | 503 kts | 224° |
| 2026-05-06 18:16 | -0.92634 | 37.49432 | 26671 ft | 499 kts | 224° |
| 2026-05-06 18:16 | -0.95119 | 37.47026 | 25959 ft | 496 kts | 224° |
| 2026-05-06 18:16 | -0.97591 | 37.44631 | 25267 ft | 493 kts | 224° |
| 2026-05-06 18:16 | -1.00050 | 37.42251 | 24584 ft | 490 kts | 224° |
| 2026-05-06 18:17 | -1.02490 | 37.39888 | 23877 ft | 488 kts | 224° |
| 2026-05-06 18:17 | -1.04918 | 37.37536 | 23100 ft | 485 kts | 224° |
| 2026-05-06 18:17 | -1.07328 | 37.35203 | 22380 ft | 480 kts | 224° |
| 2026-05-06 18:17 | -1.09708 | 37.32898 | 21684 ft | 474 kts | 224° |
| 2026-05-06 18:18 | -1.12064 | 37.30616 | 20993 ft | 469 kts | 224° |
| 2026-05-06 18:18 | -1.14394 | 37.28360 | 20304 ft | 464 kts | 224° |
| 2026-05-06 18:18 | -1.16702 | 37.26124 | 19608 ft | 460 kts | 224° |
| 2026-05-06 18:18 | -1.18995 | 37.23904 | 18902 ft | 457 kts | 224° |
| 2026-05-06 18:19 | -1.21268 | 37.21702 | 18196 ft | 453 kts | 224° |
| 2026-05-06 18:19 | -1.23519 | 37.19522 | 17435 ft | 449 kts | 224° |
| 2026-05-06 18:19 | -1.25745 | 37.17366 | 16738 ft | 443 kts | 224° |
| 2026-05-06 18:19 | -1.27883 | 37.15178 | 16051 ft | 436 kts | 230° |
| 2026-05-06 18:20 | -1.29712 | 37.12848 | 15144 ft | 418 kts | 234° |
| 2026-05-06 18:20 | -1.31387 | 37.10553 | 14412 ft | 400 kts | 234° |
| 2026-05-06 18:20 | -1.33017 | 37.08304 | 13708 ft | 400 kts | 234° |
| 2026-05-06 18:20 | -1.34650 | 37.06057 | 13001 ft | 399 kts | 234° |
| 2026-05-06 18:21 | -1.36277 | 37.03825 | 12324 ft | 396 kts | 234° |
| 2026-05-06 18:21 | -1.37895 | 37.01609 | 11652 ft | 393 kts | 234° |
| 2026-05-06 18:21 | -1.39499 | 36.99414 | 11088 ft | 387 kts | 233° |
| 2026-05-06 18:21 | -1.41047 | 36.97295 | 10958 ft | 369 kts | 233° |
| 2026-05-06 18:22 | -1.42524 | 36.95275 | 10817 ft | 351 kts | 233° |
| 2026-05-06 18:22 | -1.43936 | 36.93344 | 10706 ft | 335 kts | 233° |
| 2026-05-06 18:22 | -1.45279 | 36.91507 | 10577 ft | 320 kts | 233° |
| 2026-05-06 18:22 | -1.46567 | 36.89746 | 10454 ft | 307 kts | 233° |
| 2026-05-06 18:23 | -1.47799 | 36.88061 | 10321 ft | 295 kts | 233° |
| 2026-05-06 18:23 | -1.48993 | 36.86418 | 10085 ft | 291 kts | 234° |
| 2026-05-06 18:23 | -1.49913 | 36.84595 | 9651 ft | 299 kts | 253° |
| 2026-05-06 18:23 | -1.50009 | 36.82537 | 9213 ft | 299 kts | 282° |
| 2026-05-06 18:24 | -1.49204 | 36.80676 | 8901 ft | 297 kts | 307° |
| 2026-05-06 18:24 | -1.47665 | 36.79332 | 8406 ft | 295 kts | 334° |
| 2026-05-06 18:24 | -1.45881 | 36.78393 | 8200 ft | 285 kts | 333° |
| 2026-05-06 18:24 | -1.44041 | 36.77867 | 7963 ft | 270 kts | 3° |
| 2026-05-06 18:25 | -1.42328 | 36.78392 | 7792 ft | 253 kts | 38° |
| 2026-05-06 18:25 | -1.41225 | 36.79675 | 7661 ft | 239 kts | 60° |
| 2026-05-06 18:25 | -1.40390 | 36.81065 | 7568 ft | 226 kts | 59° |
| 2026-05-06 18:25 | -1.39558 | 36.82305 | 7472 ft | 203 kts | 56° |
| 2026-05-06 18:26 | -1.38762 | 36.83383 | 7372 ft | 183 kts | 55° |
| 2026-05-06 18:26 | -1.38039 | 36.84373 | 7139 ft | 171 kts | 57° |
| 2026-05-06 18:26 | -1.37364 | 36.85311 | 6921 ft | 162 kts | 55° |
| 2026-05-06 18:26 | -1.36721 | 36.86179 | 6742 ft | 150 kts | 56° |
| 2026-05-06 18:27 | -1.36114 | 36.86999 | 6564 ft | 147 kts | 57° |
| 2026-05-06 18:27 | -1.35528 | 36.87824 | 6301 ft | 145 kts | 57° |
| 2026-05-06 18:27 | -1.34947 | 36.88654 | 6108 ft | 146 kts | 56° |
| 2026-05-06 18:27 | -1.34337 | 36.89481 | 5913 ft | 148 kts | 54° |
| 2026-05-06 18:28 | -1.33723 | 36.90293 | 5701 ft | 144 kts | 58° |
| 2026-05-06 18:28 | -1.33143 | 36.91102 | 5554 ft | 145 kts | 56° |
| 2026-05-06 18:28 | -1.32544 | 36.91925 | 5360 ft | 146 kts | 56° |
| 2026-05-06 18:28 | -1.31976 | 36.92706 | 5316 ft | 116 kts | 54° |
| 2026-05-06 18:29 | -1.31665 | 36.93132 | 5307 ft | 35 kts | 53° |
| 2026-05-06 18:29 | -1.31568 | 36.93289 | 5307 ft | 25 kts | 77° |
| 2026-05-06 18:29 | -1.31628 | 36.93385 | 5307 ft | 12 kts | 156° |
| 2026-05-06 18:29 | -1.31699 | 36.93430 | 5308 ft | 12 kts | 149° |
| 2026-05-06 18:30 | -1.31766 | 36.93472 | 5310 ft | 11 kts | 147° |
| 2026-05-06 18:30 | -1.31812 | 36.93472 | 5312 ft | 7 kts | 202° |
| 2026-05-06 18:30 | -1.31860 | 36.93424 | 5308 ft | 12 kts | 233° |
| 2026-05-06 18:30 | -1.31911 | 36.93355 | 5312 ft | 13 kts | 233° |
| 2026-05-06 18:31 | -1.31963 | 36.93285 | 5311 ft | 12 kts | 236° |
| 2026-05-06 18:31 | -1.32012 | 36.93213 | 5312 ft | 13 kts | 232° |
| 2026-05-06 18:31 | -1.32072 | 36.93135 | 5314 ft | 16 kts | 233° |
| 2026-05-06 18:31 | -1.32141 | 36.93039 | 5319 ft | 17 kts | 235° |
| 2026-05-06 18:32 | -1.32211 | 36.92941 | 5317 ft | 17 kts | 233° |
| 2026-05-06 18:32 | -1.32286 | 36.92840 | 5333 ft | 19 kts | 233° |
| 2026-05-06 18:32 | -1.32363 | 36.92736 | 5337 ft | 19 kts | 234° |
| 2026-05-06 18:32 | -1.32442 | 36.92628 | 5336 ft | 20 kts | 233° |
| 2026-05-06 18:33 | -1.32529 | 36.92510 | 5335 ft | 22 kts | 233° |
| 2026-05-06 18:33 | -1.32617 | 36.92390 | 5335 ft | 20 kts | 234° |
| 2026-05-06 18:33 | -1.32702 | 36.92271 | 5332 ft | 21 kts | 234° |
| 2026-05-06 18:33 | -1.32810 | 36.92221 | 5336 ft | 19 kts | 150° |
| 2026-05-06 18:34 | -1.32862 | 36.92249 | 5337 ft | 6 kts | 165° |
| 2026-05-06 18:34 | -1.32901 | 36.92264 | 5335 ft | 6 kts | 146° |
| 2026-05-06 18:34 | -1.32929 | 36.92303 | 5336 ft | 7 kts | 122° |
| 2026-05-06 18:34 | -1.32952 | 36.92339 | 5336 ft | 0 kts | 122° |